Latest Coastal Weather Observations for Low Head

IDV60701

Issued at 1:12 am EST Thursday 3 September 2026 (issued every 10 minutes, with the page automatically refreshed every 10 minutes)

About coastal observations | Map of coastal stations | Coastal observations for VIC | Marine services | Other Formats
Station Details ID: 091293 Name: LOW HEAD Lat: -41.05 Lon: 146.79 Height: 3.0 m
Data from the previous 72 hours. | See also: Recent months at Low Head
Date/Time
EST
Wind Sea
Height
m
Swell Vis
km
Cloud Weather Temp
°C
Press
MSL
hPa
Rain since
9am
mm
Dir  Spd
kts
Gust
kts
Height
m
Period
s
Dir
03/01:00am NW 25 30 - - - - - - - 12.5 1003.5 0.8
03/12:30am NW 25 32 - - - - - - - 12.4 1003.8 0.8
03/12:00am NW 24 30 - - - - - - Recent precip. 12.5 1004.2 0.8
 
Date/Time
EST
Wind Sea
Height
m
Swell Vis
km
Cloud Weather Temp
°C
Press
MSL
hPa
Rain since
9am
mm
Dir  Spd
kts
Gust
kts
Height
m
Period
s
Dir
02/11:30pm NW 23 27 - - - - - - - 12.5 1004.8 0.2
02/11:00pm WNW 24 29 - - - - - - - 12.4 1005.3 0.2
02/10:30pm NW 22 27 - - - - - - - 12.6 1005.7 0.2
02/10:00pm WNW 21 28 - - - - - - - 12.6 1006.1 0.2
02/09:30pm NW 22 26 - - - - - - - 12.5 1006.4 0.2
02/09:00pm WNW 22 28 - - - - - - - 12.3 1006.8 0.2
02/08:30pm WNW 22 28 - - - - - - - 12.6 1007.0 0.2
02/08:00pm WNW 21 25 - - - - - - - 12.1 1007.0 0.2
02/07:30pm WNW 22 26 - - - - - - - 12.0 1007.0 0.2
02/07:00pm WNW 21 26 - - - - - - - 11.9 1007.0 0.2
02/06:30pm WNW 23 27 - - - - - - - 12.6 1007.0 0.2
02/06:00pm WNW 20 23 - - - - - - - 12.5 1007.1 0.2
02/05:30pm WNW 21 24 - - - - - - - 12.1 1007.1 0.2
02/05:00pm WNW 21 25 - - - - - - - 12.1 1007.2 0.2
02/04:30pm WNW 20 23 - - - - - - - 12.0 1007.5 0.2
02/04:00pm WNW 20 25 - - - - - - - 12.8 1007.5 0.0
02/03:30pm WNW 21 25 - - - - - - - 13.1 1007.8 0.0
02/03:00pm WNW 23 27 - - - - - - - 13.2 1007.9 0.0
02/02:30pm WNW 23 27 - - - - - - - 13.1 1008.0 0.0
02/02:00pm WNW 24 30 - - - - - - - 13.4 1008.1 0.0
02/01:30pm WNW 23 27 - - - - - - - 13.8 1008.4 0.0
02/01:00pm WNW 20 24 - - - - - - - 13.5 1008.8 0.0
02/12:30pm WNW 21 26 - - - - - - - 13.4 1009.0 0.0
02/12:00pm WNW 20 25 - - - - - - - 13.4 1009.4 0.0
02/11:30am WNW 20 24 - - - - - - - 13.4 1009.7 0.0
02/11:00am WNW 20 23 - - - - - - - 13.5 1009.9 0.0
02/10:30am WNW 20 23 - - - - - - - 13.3 1010.0 0.0
02/10:00am W 19 23 - - - - - - - 12.8 1010.0 0.0
02/09:30am W 22 27 - - - - - - - 12.3 1010.2 0.0
02/09:00am WNW 22 26 - - - - - - - 12.2 1010.2 4.0
02/08:30am WNW 20 24 - - - - - - - 12.0 1009.8 4.0
02/08:00am W 19 22 - - - - - - - 11.7 1009.6 4.0
02/07:30am W 20 24 - - - - - - - 11.5 1009.4 4.0
02/07:00am W 21 24 - - - - - - - 11.4 1009.1 4.0
02/06:30am W 22 26 - - - - - - - 11.3 1008.4 4.0
02/06:00am W 23 26 - - - - - - - 11.3 1008.3 4.0
02/05:30am W 23 27 - - - - - - - 11.3 1008.2 4.0
02/05:00am W 23 27 - - - - - - - 11.3 1007.9 4.0
02/04:30am W 22 26 - - - - - - - 11.2 1007.6 4.0
02/04:00am W 23 27 - - - - - - - 11.3 1007.4 4.0
02/03:30am W 23 26 - - - - - - - 11.6 1007.2 4.0
02/03:00am W 23 27 - - - - - - - 11.7 1007.2 4.0
02/02:30am W 26 31 - - - - - - - 11.8 1006.7 4.0
02/02:00am W 25 29 - - - - - - - 12.1 1006.9 4.0
02/01:30am W 24 29 - - - - - - - 12.3 1006.8 4.0
02/01:00am WNW 24 28 - - - - - - - 12.4 1006.3 4.0
02/12:30am WNW 21 26 - - - - - - - 12.5 1006.3 4.0
02/12:00am WNW 20 24 - - - - - - - 12.7 1005.8 4.0
 
Date/Time
EST
Wind Sea
Height
m
Swell Vis
km
Cloud Weather Temp
°C
Press
MSL
hPa
Rain since
9am
mm
Dir  Spd
kts
Gust
kts
Height
m
Period
s
Dir
01/11:30pm NW 22 26 - - - - - - - 13.1 1005.6 4.0
01/11:00pm NW 25 30 - - - - - - - 13.3 1006.2 4.0
01/10:30pm NW 24 31 - - - - - - - 13.3 1006.6 4.0
01/10:00pm NW 21 24 - - - - - - - 13.1 1007.1 4.0
01/09:30pm NW 24 30 - - - - - - - 13.2 1007.1 3.6
01/09:00pm NW 23 29 - - - - - - Rain 13.4 1007.3 2.8
01/08:30pm NW 23 29 - - - - - - - 13.5 1007.4 2.0
01/08:00pm NW 23 29 - - - - - - - 13.6 1007.4 1.8
01/07:30pm NW 22 28 - - - - - - - 13.7 1007.6 1.4
01/07:00pm NW 23 28 - - - - - - - 13.8 1007.7 1.2
01/06:30pm NW 23 29 - - - - - - - 14.0 1007.5 0.8
01/06:00pm NW 22 27 - - - - - - - 14.6 1007.5 0.6
01/05:30pm NW 23 28 - - - - - - - 14.8 1007.6 0.6
01/05:00pm NNW 23 27 - - - - - - - 14.6 1007.7 0.6
01/04:30pm NNW 23 29 - - - - - - - 14.4 1008.1 0.6
01/04:00pm NNW 18 22 - - - - - - - 14.1 1008.6 0.6
01/03:30pm NW 11 16 - - - - - - - 13.8 1009.3 0.4
01/03:00pm WNW 11 14 - - - - - - - 14.4 1009.4 0.0
01/02:30pm NW 14 16 - - - - - - - 14.9 1009.9 0.0
01/02:00pm NW 15 18 - - - - - - - 14.5 1010.3 0.0
01/01:30pm NW 12 16 - - - - - - - 15.0 1011.0 0.0
01/01:00pm NW 13 16 - - - - - - - 14.7 1011.7 0.0
01/12:30pm WNW 9 11 - - - - - - - 15.6 1012.7 0.0
01/12:00pm NW 15 18 - - - - - - - 15.0 1013.5 0.0
01/11:30am NW 16 19 - - - - - - - 14.8 1014.1 0.0
01/11:00am NNW 11 14 - - - - - - - 14.4 1014.6 0.0
01/10:30am NNE 11 13 - - - - - - - 13.5 1015.3 0.0
01/10:00am NE 10 11 - - - - - - - 13.6 1015.7 0.0
01/09:30am NE 11 12 - - - - - - - 13.1 1016.3 0.0
01/09:00am NNE 9 10 - - - - - - - 12.6 1017.0 0.0
01/08:30am NNE 8 9 - - - - - - - 12.5 1017.5 0.0
01/08:00am N 7 8 - - - - - - - 12.0 1018.1 0.0
01/07:30am NNW 8 10 - - - - - - - 11.7 1018.2 0.0
01/07:00am NNW 7 9 - - - - - - - 11.6 1018.1 0.0
01/06:30am NW 10 13 - - - - - - - 11.4 1018.5 0.0
01/06:00am NNW 9 11 - - - - - - - 11.3 1018.8 0.0
01/05:30am WNW 7 9 - - - - - - - 10.8 1019.4 0.0
01/05:00am WNW 8 11 - - - - - - - 10.6 1019.8 0.0
01/04:30am WNW 9 12 - - - - - - - 10.3 1020.0 0.0
01/04:00am WNW 11 14 - - - - - - - 10.3 1020.5 0.0
01/03:30am WNW 11 15 - - - - - - - 10.2 1020.7 0.0
01/03:00am NW 12 15 - - - - - - - 10.2 1020.9 0.0
01/02:30am NW 12 15 - - - - - - - 10.7 1021.6 0.0
01/02:00am WNW 12 14 - - - - - - - 10.8 1022.2 0.0
01/01:30am WNW 13 15 - - - - - - - 10.8 1022.5 0.0
01/01:00am WNW 15 17 - - - - - - - 11.0 1022.5 0.0
01/12:30am WNW 15 17 - - - - - - - 11.1 1022.5 0.0
01/12:00am WNW 13 16 - - - - - - - 11.1 1023.0 0.0
 
Date/Time
EST
Wind Sea
Height
m
Swell Vis
km
Cloud Weather Temp
°C
Press
MSL
hPa
Rain since
9am
mm
Dir  Spd
kts
Gust
kts
Height
m
Period
s
Dir
31/11:30pm WNW 14 16 - - - - - - - 11.2 1023.4 0.0
31/11:00pm WNW 16 19 - - - - - - - 11.4 1023.7 0.0
31/10:30pm WNW 16 19 - - - - - - - 11.4 1023.9 0.0
31/10:00pm WNW 17 19 - - - - - - - 11.6 1024.1 0.0
31/09:30pm WNW 19 21 - - - - - - - 11.6 1024.2 0.0
31/09:00pm WNW 20 22 - - - - - - - 11.6 1024.2 0.0
31/08:30pm WNW 18 21 - - - - - - - 11.7 1024.3 0.0
31/08:00pm WNW 17 19 - - - - - - - 11.7 1024.4 0.0
31/07:30pm WNW 19 22 - - - - - - - 11.8 1024.5 0.0
31/07:00pm WNW 19 22 - - - - - - - 11.9 1024.6 0.0
31/06:30pm WNW 18 21 - - - - - - - 11.9 1024.7 0.0
31/06:00pm WNW 18 21 - - - - - - - 12.0 1024.8 0.0
31/05:30pm WNW 21 24 - - - - - - - 12.3 1024.8 0.0
31/05:00pm WNW 20 24 - - - - - - - 12.6 1024.8 0.0
31/04:30pm WNW 22 27 - - - - - - - 13.1 1025.0 0.0
31/04:00pm WNW 23 27 - - - - - - - 13.3 1025.1 0.0
31/03:30pm WNW 20 23 - - - - - - - 13.6 1025.4 0.0
31/03:00pm WNW 21 25 - - - - - - - 13.8 1025.5 0.0
31/02:30pm WNW 20 23 - - - - - - - 14.0 1025.8 0.0
31/02:00pm WNW 16 20 - - - - - - - 14.5 1026.3 0.0
31/01:30pm WNW 17 21 - - - - - - - 13.9 1026.5 0.0
31/01:00pm WNW 17 21 - - - - - - - 13.9 1026.9 0.0
31/12:30pm WNW 16 19 - - - - - - - 14.0 1027.3 0.0
31/12:00pm WNW 17 20 - - - - - - - 13.8 1027.7 0.0
31/11:30am W 16 19 - - - - - - - 13.6 1027.9 0.0
31/11:00am W 19 23 - - - - - - - 13.0 1028.0 0.0
31/10:30am W 21 24 - - - - - - - 12.9 1027.9 0.0
31/10:00am W 19 22 - - - - - - - 12.8 1028.0 0.0
31/09:30am W 18 20 - - - - - - - 12.4 1028.1 0.0
31/09:00am W 19 22 - - - - - - - 12.0 1028.2 0.0
31/08:30am W 15 18 - - - - - - - 11.7 1028.1 0.0
31/08:00am W 16 18 - - - - - - - 11.6 1028.0 0.0
31/07:30am W 19 20 - - - - - - - 11.5 1027.6 0.0
31/07:00am W 20 22 - - - - - - - 11.4 1027.2 0.0
31/06:30am W 20 23 - - - - - - - 11.4 1027.2 0.0
31/06:00am W 20 22 - - - - - - - 11.4 1027.0 0.0
31/05:30am W 18 21 - - - - - - - 11.3 1027.0 0.0
31/05:00am W 15 17 - - - - - - - 11.2 1027.0 0.0
31/04:30am W 14 16 - - - - - - - 11.2 1026.9 0.0
31/04:00am W 11 14 - - - - - - - 11.1 1027.1 0.0
31/03:30am W 14 17 - - - - - - - 11.0 1026.9 0.0
31/03:00am W 16 19 - - - - - - - 11.3 1026.9 0.0
31/02:30am W 19 21 - - - - - - - 11.5 1026.9 0.0
31/02:00am W 21 24 - - - - - - - 11.7 1027.2 0.0
31/01:30am W 20 23 - - - - - - - 11.6 1027.5 0.0

Other formats

Comma delimited format used in spreadsheet applications
http://www.bom.gov.au/fwo/IDV60701/IDV60701.95964.axf

JavaScript Object Notation format (JSON) in row-major order
http://www.bom.gov.au/fwo/IDV60701/IDV60701.95964.json

Data quality

Most of these data are generated automatically and are frequently updated. Quality checks on data are not normally performed. It is possible for incorrect values to appear. Refer to information at About Latest Weather Observations and please check the disclaimer before using these data.